Time;durP1;ratioP1;P1;durP2;ratioP2;P2;SDS_P1;SDS_P2;PMS_P1;PMS_P2;Temp;Humidity;BMP_temperature;BMP_pressure;BME280_temperature;BME280_humidity;BME280_pressure;Samples;Min_cycle;Max_cycle;Signal;HPM_P1;HPM_P2
2023/07/28 00:01:24;;;;;;;5.25;3.22;;;20.10;99.90;;;;;;4953802;28;20043;-71
2023/07/28 00:03:49;;;;;;;7.53;3.65;;;20.10;99.90;;;;;;4954840;28;20049;-72
2023/07/28 00:06:15;;;;;;;4.45;3.53;;;20.10;99.90;;;;;;4955818;28;20534;-73
2023/07/28 00:08:41;;;;;;;5.68;3.50;;;20.10;99.90;;;;;;4935607;29;20063;-72
2023/07/28 00:11:12;;;;;;;3.72;3.40;;;20.10;99.90;;;;;;4935704;29;20396;-73
2023/07/28 00:13:38;;;;;;;4.32;3.63;;;20.10;99.90;;;;;;4935590;29;20035;-74
2023/07/28 00:16:04;;;;;;;3.50;3.20;;;20.10;99.90;;;;;;4935325;29;20046;-75
2023/07/28 00:18:30;;;;;;;4.38;3.35;;;20.10;99.90;;;;;;4946654;29;20468;-78
2023/07/28 00:20:56;;;;;;;5.45;3.60;;;20.10;99.90;;;;;;4954063;28;20050;-73
2023/07/28 00:23:21;;;;;;;5.75;3.63;;;20.10;99.90;;;;;;4953137;28;20035;-73
2023/07/28 00:25:47;;;;;;;5.38;4.00;;;20.20;99.90;;;;;;4948057;28;20036;-74
2023/07/28 00:28:13;;;;;;;3.53;3.22;;;20.20;99.90;;;;;;4934931;29;20366;-73
2023/07/28 00:30:39;;;;;;;6.13;3.83;;;20.20;99.90;;;;;;4935019;29;20020;-73
2023/07/28 00:33:05;;;;;;;4.53;3.95;;;20.20;99.90;;;;;;4934595;29;20032;-73
2023/07/28 00:35:31;;;;;;;5.07;3.95;;;20.20;99.90;;;;;;4934942;28;20568;-71
2023/07/28 00:37:56;;;;;;;8.93;4.75;;;20.20;99.90;;;;;;4949944;29;20032;-71
2023/07/28 00:40:22;;;;;;;5.22;3.65;;;20.20;99.90;;;;;;4935212;29;20038;-71
2023/07/28 00:42:48;;;;;;;5.78;4.20;;;20.20;99.90;;;;;;4949760;29;20531;-71
2023/07/28 00:45:14;;;;;;;5.22;4.70;;;20.10;99.90;;;;;;4939123;29;20023;-72
2023/07/28 00:47:40;;;;;;;9.77;5.53;;;20.10;99.90;;;;;;4948545;28;20552;-71
2023/07/28 00:50:09;;;;;;;8.70;5.00;;;20.20;99.90;;;;;;4934856;29;20032;-71
2023/07/28 00:52:34;;;;;;;8.48;5.10;;;20.10;99.90;;;;;;4944906;28;20026;-71
2023/07/28 00:55:00;;;;;;;6.05;5.43;;;20.10;99.90;;;;;;4942859;28;20107;-71
2023/07/28 00:57:26;;;;;;;6.10;4.95;;;20.10;99.90;;;;;;4943186;28;20114;-71
2023/07/28 00:59:53;;;;;;;6.25;5.13;;;20.20;99.90;;;;;;4953645;28;20106;-72
2023/07/28 01:02:19;;;;;;;5.00;4.55;;;20.20;99.90;;;;;;4954199;29;20043;-72
2023/07/28 01:04:45;;;;;;;7.68;5.93;;;20.10;99.90;;;;;;4953597;29;20429;-72
2023/07/28 01:07:24;;;;;;;7.25;5.10;;;20.10;99.90;;;;;;4954362;28;20419;-72
2023/07/28 01:09:56;;;;;;;8.32;6.15;;;20.20;99.90;;;;;;4954016;28;20032;-74
2023/07/28 01:12:24;;;;;;;7.13;5.65;;;20.10;99.90;;;;;;4945974;28;20085;-71
2023/07/28 01:14:49;;;;;;;6.25;5.68;;;20.10;99.90;;;;;;4934192;29;20020;-72
2023/07/28 01:17:15;;;;;;;8.18;6.38;;;20.10;99.90;;;;;;4949213;28;20385;-72
2023/07/28 01:19:41;;;;;;;6.60;5.90;;;20.20;99.90;;;;;;4934442;29;20040;-74
2023/07/28 01:22:12;;;;;;;13.85;5.85;;;20.20;99.90;;;;;;4935013;29;20144;-73
2023/07/28 01:25:05;;;;;;;7.65;6.30;;;20.20;99.90;;;;;;4934689;29;20032;-72
2023/07/28 01:27:32;;;;;;;;;;;20.20;99.90;;;;;;4935037;29;20031;-72
2023/07/28 01:29:58;;;;;;;7.32;5.22;;;20.20;99.90;;;;;;4949105;29;19918;-72
2023/07/28 01:32:23;;;;;;;10.20;6.40;;;20.30;99.90;;;;;;4934697;29;20032;-73
2023/07/28 01:34:49;;;;;;;8.30;6.00;;;20.20;99.90;;;;;;4934926;29;20034;-72
2023/07/28 01:37:15;;;;;;;6.93;6.18;;;20.30;99.90;;;;;;4934882;29;20090;-72
2023/07/28 01:39:40;;;;;;;6.13;5.57;;;20.20;99.90;;;;;;4934040;29;20391;-72
2023/07/28 01:42:06;;;;;;;9.88;6.35;;;20.20;99.90;;;;;;4934798;29;20031;-72
2023/07/28 01:44:32;;;;;;;6.38;5.78;;;20.30;99.90;;;;;;4936659;29;20035;-72
2023/07/28 01:46:57;;;;;;;10.05;6.15;;;20.20;99.90;;;;;;4952934;29;20460;-72
2023/07/28 01:49:23;;;;;;;6.50;5.65;;;20.30;99.90;;;;;;4938266;29;20035;-74
2023/07/28 01:51:49;;;;;;;6.20;5.63;;;20.20;99.90;;;;;;4938027;29;20028;-74
2023/07/28 01:54:14;;;;;;;5.65;4.95;;;20.30;99.90;;;;;;4938283;28;20457;-72
2023/07/28 01:56:40;;;;;;;10.48;6.68;;;20.30;99.90;;;;;;4938746;28;20499;-72
2023/07/28 01:59:06;;;;;;;9.05;5.57;;;20.30;99.90;;;;;;4957093;29;20054;-72
2023/07/28 02:01:31;;;;;;;8.23;5.40;;;20.30;99.90;;;;;;4956793;28;20050;-72
2023/07/28 02:03:57;;;;;;;7.57;5.50;;;20.20;99.90;;;;;;4956969;28;20496;-72
2023/07/28 02:06:23;;;;;;;6.00;4.90;;;20.20;99.90;;;;;;4955871;29;20027;-72
2023/07/28 02:08:48;;;;;;;7.18;5.18;;;20.20;99.90;;;;;;4956890;29;20027;-73
2023/07/28 02:11:14;;;;;;;6.68;5.13;;;20.20;99.90;;;;;;4957172;29;20111;-73
2023/07/28 02:13:40;;;;;;;6.47;5.22;;;20.30;99.90;;;;;;4957021;29;20055;-72
2023/07/28 02:16:06;;;;;;;6.63;4.50;;;20.30;99.90;;;;;;4957013;28;20031;-72
2023/07/28 02:18:31;;;;;;;5.93;4.72;;;20.20;99.90;;;;;;4957343;29;20027;-72
2023/07/28 02:20:57;;;;;;;6.63;5.03;;;20.20;99.90;;;;;;4955196;28;20056;-72
2023/07/28 02:23:22;;;;;;;10.90;5.63;;;20.20;99.90;;;;;;4955588;29;20369;-72
2023/07/28 02:25:48;;;;;;;6.70;4.43;;;20.30;99.90;;;;;;4956097;28;20027;-73
2023/07/28 02:28:14;;;;;;;7.95;5.63;;;20.20;99.90;;;;;;4956454;28;20035;-72
2023/07/28 02:30:39;;;;;;;6.07;5.32;;;20.10;99.90;;;;;;4954900;28;20115;-72
2023/07/28 02:33:05;;;;;;;7.85;5.53;;;20.20;99.90;;;;;;4956798;29;20464;-72
2023/07/28 02:35:31;;;;;;;6.05;5.30;;;20.20;99.90;;;;;;4956580;28;20023;-71
2023/07/28 02:37:58;;;;;;;7.25;5.43;;;20.10;99.90;;;;;;4956732;29;20035;-72
2023/07/28 02:40:23;;;;;;;6.97;4.97;;;20.20;99.90;;;;;;4956554;28;20025;-72
2023/07/28 02:42:49;;;;;;;5.60;4.72;;;20.10;99.90;;;;;;4956689;29;20114;-73
2023/07/28 02:45:15;;;;;;;6.55;5.13;;;20.10;99.90;;;;;;4954704;28;20083;-73
2023/07/28 02:47:40;;;;;;;7.65;5.63;;;20.10;99.90;;;;;;4954571;28;20042;-73
2023/07/28 02:50:07;;;;;;;7.28;5.78;;;20.20;99.90;;;;;;4956184;28;20031;-72
2023/07/28 02:52:32;;;;;;;6.85;5.35;;;20.10;99.90;;;;;;4956079;28;20035;-72
2023/07/28 02:54:58;;;;;;;6.45;5.18;;;20.20;99.90;;;;;;4955715;28;20353;-72
2023/07/28 02:57:23;;;;;;;7.22;4.72;;;20.20;99.90;;;;;;4955857;28;20046;-72
2023/07/28 02:59:49;;;;;;;8.23;5.03;;;20.20;99.90;;;;;;4955754;29;20511;-74
2023/07/28 03:02:15;;;;;;;6.20;4.88;;;20.20;99.90;;;;;;4956202;28;20039;-73
2023/07/28 03:04:40;;;;;;;6.32;5.10;;;20.20;99.90;;;;;;4955973;29;20027;-72
2023/07/28 03:07:06;;;;;;;12.50;6.93;;;20.30;99.90;;;;;;4956142;29;20173;-73
2023/07/28 03:09:32;;;;;;;8.25;6.45;;;20.30;99.90;;;;;;4956228;29;20469;-72
2023/07/28 03:11:57;;;;;;;7.40;6.60;;;20.20;99.90;;;;;;4955285;28;20027;-72
2023/07/28 03:14:23;;;;;;;10.70;7.07;;;20.30;99.90;;;;;;4955948;29;20019;-72
2023/07/28 03:16:49;;;;;;;9.57;6.75;;;20.30;99.90;;;;;;4955887;29;20174;-73
2023/07/28 03:19:15;;;;;;;10.93;7.88;;;20.30;99.90;;;;;;4956168;28;20106;-73
2023/07/28 03:21:40;;;;;;;9.85;8.40;;;20.30;99.90;;;;;;4955352;29;20070;-72
2023/07/28 03:24:06;;;;;;;13.98;8.82;;;20.30;99.90;;;;;;4955645;29;20047;-72
2023/07/28 03:26:31;;;;;;;12.70;8.95;;;20.30;99.90;;;;;;4954327;28;20039;-72
2023/07/28 03:28:57;;;;;;;15.52;11.98;;;20.20;99.90;;;;;;4955224;28;20034;-72
2023/07/28 03:31:23;;;;;;;18.52;11.32;;;20.30;99.90;;;;;;4955439;29;20042;-72
2023/07/28 03:33:48;;;;;;;17.25;12.23;;;20.30;99.90;;;;;;4955530;29;20063;-75
2023/07/28 03:36:14;;;;;;;28.02;16.00;;;20.30;99.90;;;;;;4955670;28;20065;-72
2023/07/28 03:38:40;;;;;;;30.17;16.65;;;20.20;99.90;;;;;;4955211;29;20023;-73
2023/07/28 03:41:06;;;;;;;27.17;15.32;;;20.30;99.90;;;;;;4955334;28;20062;-72
2023/07/28 03:43:32;;;;;;;25.15;15.35;;;20.30;99.90;;;;;;4955209;29;20027;-73
2023/07/28 03:45:58;;;;;;;33.70;18.58;;;20.30;99.90;;;;;;4955465;29;20031;-73
2023/07/28 03:48:24;;;;;;;25.10;16.63;;;20.20;99.90;;;;;;4955319;29;20055;-73
2023/07/28 03:50:49;;;;;;;26.15;16.13;;;20.30;99.90;;;;;;4955341;29;20042;-72
2023/07/28 03:53:15;;;;;;;25.42;16.83;;;20.20;99.90;;;;;;4954779;28;20553;-72
2023/07/28 03:55:40;;;;;;;28.42;16.38;;;20.20;99.90;;;;;;4954725;29;20111;-73
2023/07/28 03:58:06;;;;;;;24.90;15.70;;;20.20;99.90;;;;;;4953460;28;20023;-72
2023/07/28 04:00:32;;;;;;;27.05;15.60;;;20.20;99.90;;;;;;4954921;28;20536;-74
2023/07/28 04:02:57;;;;;;;28.02;16.23;;;20.20;99.90;;;;;;4954574;28;20027;-73
2023/07/28 04:05:23;;;;;;;31.80;16.60;;;20.20;99.90;;;;;;4954802;28;20140;-72
2023/07/28 04:07:48;;;;;;;31.55;16.70;;;20.20;99.90;;;;;;4954591;28;20027;-74
2023/07/28 04:10:14;;;;;;;25.50;15.32;;;20.20;99.90;;;;;;4954713;28;20027;-72
2023/07/28 04:12:40;;;;;;;21.63;14.30;;;20.20;99.90;;;;;;4954658;29;20059;-73
2023/07/28 04:15:06;;;;;;;24.40;14.20;;;20.20;99.90;;;;;;4954878;28;20023;-72
2023/07/28 04:17:31;;;;;;;28.85;15.50;;;20.30;99.90;;;;;;4954733;29;20476;-72
2023/07/28 04:19:57;;;;;;;21.30;15.00;;;20.30;99.90;;;;;;4954600;29;20031;-73
2023/07/28 04:22:23;;;;;;;20.60;14.20;;;20.30;99.90;;;;;;4949850;29;20032;-72
2023/07/28 04:24:49;;;;;;;22.55;14.18;;;20.30;99.90;;;;;;4952491;28;20499;-72
2023/07/28 04:27:15;;;;;;;20.25;12.95;;;20.30;99.90;;;;;;4945601;28;20035;-72
2023/07/28 04:29:41;;;;;;;24.33;14.98;;;20.30;99.90;;;;;;4935161;29;20031;-72
2023/07/28 04:32:07;;;;;;;23.02;15.63;;;20.20;99.90;;;;;;4935491;29;20027;-72
2023/07/28 04:34:34;;;;;;;24.15;16.80;;;20.20;99.90;;;;;;4935154;29;20112;-72
2023/07/28 04:36:59;;;;;;;24.55;17.00;;;20.20;99.90;;;;;;4935497;29;20023;-72
2023/07/28 04:39:25;;;;;;;18.90;14.77;;;20.30;99.90;;;;;;4935427;29;20557;-72
2023/07/28 04:41:51;;;;;;;20.30;16.33;;;20.30;99.90;;;;;;4934851;29;20044;-72
2023/07/28 04:44:17;;;;;;;21.60;17.33;;;20.30;99.90;;;;;;4933968;29;20445;-71
2023/07/28 04:46:43;;;;;;;22.20;16.45;;;20.30;99.90;;;;;;4935337;29;20052;-72
2023/07/28 04:49:08;;;;;;;20.60;17.40;;;20.30;99.90;;;;;;4934861;29;20066;-71
2023/07/28 04:51:34;;;;;;;21.55;17.08;;;20.30;99.90;;;;;;4935103;29;20090;-71
2023/07/28 04:54:00;;;;;;;21.40;16.67;;;20.30;99.90;;;;;;4950418;29;20757;-71
2023/07/28 04:56:25;;;;;;;23.58;17.80;;;20.30;99.90;;;;;;4942847;28;20493;-71
2023/07/28 04:58:51;;;;;;;20.67;15.27;;;20.30;99.90;;;;;;4944367;28;20070;-71
2023/07/28 05:01:17;;;;;;;21.98;16.02;;;20.30;99.90;;;;;;4953676;28;20457;-71
2023/07/28 05:03:42;;;;;;;22.52;16.25;;;20.30;99.90;;;;;;4934836;29;20106;-71
2023/07/28 05:06:08;;;;;;;18.48;15.55;;;20.30;99.90;;;;;;4934872;29;20059;-71
2023/07/28 05:08:34;;;;;;;19.58;14.93;;;20.40;99.90;;;;;;4934966;29;20027;-71
2023/07/28 05:10:59;;;;;;;23.13;16.33;;;20.40;99.90;;;;;;4934507;29;20035;-70
2023/07/28 05:13:25;;;;;;;18.67;14.82;;;20.40;99.90;;;;;;4934752;29;20063;-70
2023/07/28 05:15:51;;;;;;;22.73;14.95;;;20.40;99.90;;;;;;4934822;29;20496;-71
2023/07/28 05:18:16;;;;;;;15.82;13.57;;;20.50;99.90;;;;;;4935870;29;20481;-70
2023/07/28 05:20:42;;;;;;;17.30;13.57;;;20.40;99.90;;;;;;4940792;29;20457;-71
2023/07/28 05:23:08;;;;;;;22.08;15.65;;;20.30;99.90;;;;;;4955918;29;20032;-71
2023/07/28 05:25:34;;;;;;;18.52;15.57;;;20.30;99.90;;;;;;4956335;28;20507;-72
2023/07/28 05:27:59;;;;;;;20.85;15.75;;;20.30;99.90;;;;;;4979646;28;20034;-74
2023/07/28 05:30:25;;;;;;;21.95;16.75;;;20.40;99.90;;;;;;4977880;28;20471;-72
2023/07/28 05:32:51;;;;;;;24.65;17.52;;;20.40;99.90;;;;;;4979376;28;20479;-72
2023/07/28 05:35:16;;;;;;;20.95;14.13;;;20.40;99.90;;;;;;4979539;28;20503;-75
2023/07/28 05:37:42;;;;;;;17.75;12.80;;;20.40;99.90;;;;;;4979669;28;20469;-78
2023/07/28 05:40:08;;;;;;;17.38;12.43;;;20.50;99.90;;;;;;4978961;28;20034;-72
2023/07/28 05:42:34;;;;;;;17.17;12.13;;;20.50;99.90;;;;;;4979727;28;20113;-76
2023/07/28 05:45:00;;;;;;;13.13;11.02;;;20.50;99.90;;;;;;4979330;28;20050;-73
2023/07/28 05:47:25;;;;;;;15.70;11.32;;;20.50;99.90;;;;;;4979310;28;20027;-69
2023/07/28 05:49:53;;;;;;;17.58;10.60;;;20.60;99.90;;;;;;4979347;28;20022;-72
2023/07/28 05:52:19;;;;;;;15.55;10.77;;;20.60;99.90;;;;;;4979484;28;20015;-73
2023/07/28 05:54:45;;;;;;;15.50;11.20;;;20.50;99.90;;;;;;4978829;28;20041;-72
2023/07/28 05:57:11;;;;;;;12.30;10.02;;;20.60;99.90;;;;;;4972808;28;20015;-71
2023/07/28 05:59:37;;;;;;;17.83;10.77;;;20.60;99.90;;;;;;4959655;28;20041;-73
2023/07/28 06:02:02;;;;;;;13.05;9.73;;;20.60;99.90;;;;;;4959951;28;20052;-71
2023/07/28 06:04:28;;;;;;;10.25;8.60;;;20.60;99.90;;;;;;4959859;29;20027;-72
2023/07/28 06:06:54;;;;;;;12.25;8.02;;;20.60;99.90;;;;;;4959884;28;20358;-72
2023/07/28 06:09:19;;;;;;;13.88;7.47;;;20.60;99.90;;;;;;4959799;28;20519;-72
2023/07/28 06:11:45;;;;;;;8.02;6.20;;;20.60;99.90;;;;;;4959712;28;20394;-72
2023/07/28 06:14:11;;;;;;;9.27;6.28;;;20.50;99.90;;;;;;4959600;28;20023;-72
2023/07/28 06:16:36;;;;;;;11.20;6.78;;;20.50;99.90;;;;;;4958586;28;20031;-73
2023/07/28 06:19:04;;;;;;;10.77;6.88;;;20.50;99.90;;;;;;4974533;28;20113;-73
2023/07/28 06:21:29;;;;;;;8.73;7.43;;;20.50;99.90;;;;;;4978585;28;20039;-73
2023/07/28 06:23:55;;;;;;;12.63;7.28;;;20.60;99.90;;;;;;4977303;28;20102;-74
2023/07/28 06:26:21;;;;;;;14.18;8.57;;;20.60;99.90;;;;;;4978807;28;20106;-73
2023/07/28 06:28:46;;;;;;;12.68;8.45;;;20.50;99.90;;;;;;4968663;28;20039;-72
2023/07/28 06:31:12;;;;;;;13.20;9.23;;;20.50;99.90;;;;;;4945242;28;20028;-73
2023/07/28 06:33:38;;;;;;;9.45;8.35;;;20.60;99.90;;;;;;4937442;28;20047;-74
2023/07/28 06:36:05;;;;;;;9.15;7.35;;;20.60;99.90;;;;;;4937635;29;20497;-73
2023/07/28 06:38:30;;;;;;;10.57;6.57;;;20.60;99.90;;;;;;4937056;29;20466;-72
2023/07/28 06:40:56;;;;;;;9.13;5.68;;;20.50;99.90;;;;;;4937217;28;20050;-72
2023/07/28 06:43:21;;;;;;;8.00;6.25;;;20.50;99.90;;;;;;4937397;29;20517;-73
2023/07/28 06:45:51;;;;;;;7.63;5.13;;;20.50;99.90;;;;;;4937283;29;20039;-72
2023/07/28 06:48:16;;;;;;;9.68;5.30;;;20.50;99.90;;;;;;4937427;29;20066;-73
2023/07/28 06:50:42;;;;;;;5.90;4.97;;;20.50;99.90;;;;;;4940100;28;20032;-74
2023/07/28 06:53:08;;;;;;;7.10;5.07;;;20.60;99.90;;;;;;4951365;28;20024;-73
2023/07/28 06:55:34;;;;;;;6.63;4.72;;;20.60;99.90;;;;;;4936944;29;20035;-74
2023/07/28 06:57:59;;;;;;;6.25;4.68;;;20.60;99.90;;;;;;4949906;28;20069;-72
2023/07/28 07:00:25;;;;;;;6.07;5.28;;;20.60;99.90;;;;;;4956146;29;20492;-72
2023/07/28 07:02:51;;;;;;;10.13;5.72;;;20.70;99.90;;;;;;4955831;28;20477;-73
2023/07/28 07:05:17;;;;;;;8.68;5.70;;;20.70;99.90;;;;;;4954718;29;20032;-74
2023/07/28 07:07:42;;;;;;;9.63;6.07;;;20.70;99.90;;;;;;4956056;29;20032;-72
2023/07/28 07:10:08;;;;;;;10.73;6.47;;;20.70;99.90;;;;;;4956150;29;20447;-72
2023/07/28 07:12:34;;;;;;;10.02;6.75;;;20.70;99.90;;;;;;4956148;28;20035;-73
2023/07/28 07:15:00;;;;;;;5.75;5.13;;;20.70;99.90;;;;;;4955397;28;20027;-69
2023/07/28 07:17:26;;;;;;;6.68;5.70;;;20.70;99.90;;;;;;4955744;29;20030;-70
2023/07/28 07:19:52;;;;;;;7.72;6.07;;;20.70;99.90;;;;;;4955671;29;20027;-72
2023/07/28 07:22:17;;;;;;;8.80;5.93;;;20.80;99.90;;;;;;4954379;29;20481;-72
2023/07/28 07:24:43;;;;;;;9.15;6.35;;;20.70;99.90;;;;;;4954437;29;20388;-73
2023/07/28 07:27:10;;;;;;;10.85;6.97;;;20.80;99.90;;;;;;4950425;28;20492;-71
2023/07/28 07:29:39;;;;;;;12.73;6.63;;;20.80;99.90;;;;;;4944396;29;20248;-72
2023/07/28 07:32:06;;;;;;;8.50;5.60;;;20.80;99.90;;;;;;4946978;29;20026;-71
2023/07/28 07:34:34;;;;;;;11.73;6.72;;;20.80;99.90;;;;;;4946342;28;20024;-71
2023/07/28 07:37:01;;;;;;;8.85;6.20;;;20.80;99.90;;;;;;4936336;29;20026;-71
2023/07/28 07:39:27;;;;;;;6.72;5.20;;;20.90;99.90;;;;;;4936468;29;20107;-71
2023/07/28 07:41:52;;;;;;;8.73;5.43;;;20.90;99.90;;;;;;4932005;28;20167;-71
2023/07/28 07:44:18;;;;;;;8.07;5.78;;;21.00;99.90;;;;;;4955064;28;20027;-72
2023/07/28 07:46:43;;;;;;;6.30;4.88;;;20.90;99.90;;;;;;4950950;28;20082;-73
2023/07/28 07:49:09;;;;;;;7.47;5.57;;;21.00;99.90;;;;;;4953851;28;20019;-75
2023/07/28 07:51:35;;;;;;;7.07;5.07;;;21.10;99.90;;;;;;4955020;28;20043;-72
2023/07/28 07:54:03;;;;;;;12.20;5.57;;;21.10;99.90;;;;;;4954938;28;20063;-73
2023/07/28 07:56:29;;;;;;;6.20;4.43;;;21.20;99.90;;;;;;4954644;28;20034;-70
2023/07/28 07:58:55;;;;;;;5.38;4.43;;;21.30;99.90;;;;;;4953598;29;20016;-72
2023/07/28 08:01:20;;;;;;;5.50;4.63;;;21.40;99.90;;;;;;4955136;29;20035;-72
2023/07/28 08:03:46;;;;;;;8.02;4.65;;;21.30;99.90;;;;;;4953306;29;20027;-71
2023/07/28 08:06:12;;;;;;;6.75;4.45;;;21.40;99.90;;;;;;4955107;29;20433;-70
2023/07/28 08:08:38;;;;;;;5.03;4.30;;;21.40;99.90;;;;;;4946463;29;20564;-72
2023/07/28 08:11:04;;;;;;;5.80;4.10;;;21.50;99.90;;;;;;4944360;29;20057;-74
2023/07/28 08:13:30;;;;;;;8.50;4.32;;;21.50;99.90;;;;;;4950331;28;20037;-72
2023/07/28 08:15:55;;;;;;;4.97;3.80;;;21.50;99.90;;;;;;4950249;28;20032;-74
2023/07/28 08:18:21;;;;;;;10.15;4.10;;;21.50;99.90;;;;;;4954483;28;20031;-71
2023/07/28 08:20:47;;;;;;;3.38;3.08;;;21.50;99.90;;;;;;4941943;29;20044;-74
2023/07/28 08:23:12;;;;;;;4.55;4.13;;;21.50;99.90;;;;;;4937145;29;20058;-71
2023/07/28 08:25:39;;;;;;;3.85;3.35;;;21.50;99.90;;;;;;4948523;28;20030;-71
2023/07/28 08:28:09;;;;;;;3.92;3.58;;;21.60;99.90;;;;;;4953911;28;20038;-72
2023/07/28 08:30:34;;;;;;;4.28;3.55;;;21.60;99.90;;;;;;4953036;28;20166;-71
2023/07/28 08:33:00;;;;;;;4.35;3.95;;;21.70;99.90;;;;;;4954127;28;20528;-70
2023/07/28 08:35:26;;;;;;;4.00;2.95;;;21.80;99.90;;;;;;4954650;28;20049;-71
2023/07/28 08:37:51;;;;;;;3.58;2.60;;;21.90;99.90;;;;;;4954410;28;20031;-76
2023/07/28 08:40:19;;;;;;;3.83;2.53;;;22.10;99.90;;;;;;4954342;28;20472;-72
2023/07/28 08:42:45;;;;;;;5.30;2.60;;;22.30;99.90;;;;;;4953880;28;20551;-72
2023/07/28 08:45:10;;;;;;;4.32;1.90;;;22.40;99.90;;;;;;4935396;29;20111;-77
2023/07/28 08:47:37;;;;;;;1.95;1.85;;;22.40;99.90;;;;;;4934906;29;20038;-72
2023/07/28 08:50:03;;;;;;;2.78;2.50;;;22.40;99.90;;;;;;4938981;29;20035;-77
2023/07/28 08:52:29;;;;;;;2.72;1.90;;;22.40;99.90;;;;;;4950085;28;20024;-71
2023/07/28 08:54:54;;;;;;;4.88;1.95;;;22.30;99.90;;;;;;4944766;29;20038;-73
2023/07/28 08:57:20;;;;;;;2.88;1.75;;;22.40;99.90;;;;;;4952857;28;20098;-73
2023/07/28 08:59:49;;;;;;;3.22;1.63;;;22.30;99.90;;;;;;4953859;29;20034;-75
2023/07/28 09:02:18;;;;;;;1.70;1.60;;;22.20;99.90;;;;;;4953081;28;20032;-75
2023/07/28 09:04:45;;;;;;;3.63;1.63;;;22.20;99.90;;;;;;4953604;28;20023;-73
2023/07/28 09:07:10;;;;;;;4.45;2.42;;;22.10;99.90;;;;;;4952101;28;20023;-74
2023/07/28 09:09:36;;;;;;;1.50;1.40;;;22.20;99.90;;;;;;4952137;28;20042;-73
2023/07/28 09:12:06;;;;;;;1.83;1.52;;;22.30;99.90;;;;;;4953566;28;20115;-74
2023/07/28 09:14:36;;;;;;;1.30;1.20;;;22.50;99.90;;;;;;4953246;28;20023;-78
2023/07/28 09:17:08;;;;;;;1.90;1.80;;;22.50;99.90;;;;;;4952202;29;20024;-77
2023/07/28 09:19:34;;;;;;;2.35;1.10;;;22.60;99.90;;;;;;4951177;28;20035;-76
2023/07/28 09:22:01;;;;;;;1.20;1.10;;;22.70;99.90;;;;;;4953171;28;20046;-75
2023/07/28 09:24:33;;;;;;;2.80;1.30;;;22.80;99.90;;;;;;4953931;28;20445;-73
2023/07/28 09:27:00;;;;;;;2.17;1.40;;;22.70;99.90;;;;;;4954056;28;20039;-75
2023/07/28 09:29:30;;;;;;;1.58;1.10;;;22.80;99.90;;;;;;4925496;28;20041;-73
2023/07/28 09:32:06;;;;;;;1.95;0.80;;;22.70;99.90;;;;;;4940199;28;20022;-73
2023/07/28 09:34:32;;;;;;;2.53;1.10;;;22.60;99.90;;;;;;4947500;28;20019;-72
2023/07/28 09:36:59;;;;;;;0.80;0.80;;;22.60;99.90;;;;;;4948116;28;20499;-72
2023/07/28 09:39:25;;;;;;;1.23;1.00;;;22.60;99.90;;;;;;4947076;28;20055;-73
2023/07/28 09:41:52;;;;;;;0.93;0.90;;;22.70;99.90;;;;;;4947257;29;20615;-78
2023/07/28 09:44:18;;;;;;;2.08;0.80;;;22.60;99.90;;;;;;4947899;28;20027;-71
2023/07/28 09:46:55;;;;;;;0.70;0.70;;;22.60;99.90;;;;;;4947818;28;20023;-73
2023/07/28 09:49:22;;;;;;;1.10;0.75;;;22.60;99.90;;;;;;4947365;28;20047;-76
2023/07/28 09:51:52;;;;;;;0.88;0.88;;;22.60;99.90;;;;;;4947820;28;20023;-72
2023/07/28 09:54:29;;;;;;;2.25;0.88;;;22.60;99.90;;;;;;4947952;28;20027;-72
2023/07/28 09:56:57;;;;;;;1.20;0.90;;;22.70;99.90;;;;;;4947161;28;20028;-71
2023/07/28 09:59:29;;;;;;;1.00;0.70;;;22.70;99.90;;;;;;4946453;28;20098;-72
2023/07/28 10:01:57;;;;;;;1.48;0.98;;;22.70;99.90;;;;;;4947301;28;20082;-72
2023/07/28 10:04:23;;;;;;;1.33;1.00;;;22.80;99.90;;;;;;4947892;28;20620;-71
2023/07/28 10:06:51;;;;;;;4.78;0.93;;;22.90;99.90;;;;;;4951069;28;20106;-71
2023/07/28 10:09:17;;;;;;;1.00;0.70;;;22.90;99.90;;;;;;4950661;28;20027;-71
2023/07/28 10:11:43;;;;;;;0.80;0.70;;;23.00;99.90;;;;;;4949743;28;20031;-73
2023/07/28 10:14:10;;;;;;;1.17;1.08;;;23.10;99.90;;;;;;4950002;28;20493;-71
2023/07/28 10:16:40;;;;;;;3.10;1.00;;;23.10;99.90;;;;;;4951055;28;20035;-71
2023/07/28 10:19:06;;;;;;;1.20;1.10;;;23.20;99.90;;;;;;4947137;28;20616;-71
2023/07/28 10:21:42;;;;;;;0.70;0.70;;;23.30;99.90;;;;;;4950000;28;20046;-71
2023/07/28 10:24:08;;;;;;;2.35;1.10;;;23.30;99.90;;;;;;4950077;28;20090;-72
2023/07/28 10:26:44;;;;;;;1.15;1.00;;;23.30;99.90;;;;;;4950357;28;20109;-73
2023/07/28 10:29:16;;;;;;;0.80;0.77;;;23.40;99.90;;;;;;4948631;28;20039;-70
2023/07/28 10:31:58;;;;;;;0.93;0.85;;;23.50;99.90;;;;;;4950100;29;20115;-74
2023/07/28 10:34:24;;;;;;;1.00;0.90;;;23.60;99.90;;;;;;4948840;28;20094;-77
2023/07/28 10:36:58;;;;;;;1.48;0.60;;;23.80;99.90;;;;;;4950484;28;20019;-72
2023/07/28 10:39:25;;;;;;;1.85;0.93;;;23.80;99.90;;;;;;4949847;28;20050;-70
2023/07/28 10:42:03;;;;;;;2.72;0.90;;;23.80;99.90;;;;;;4950190;28;20035;-70
2023/07/28 10:44:30;;;;;;;1.35;0.77;;;23.80;99.90;;;;;;4949929;28;20438;-70
2023/07/28 10:46:58;;;;;;;0.80;0.70;;;23.80;99.90;;;;;;4950495;28;20034;-71
2023/07/28 10:49:27;;;;;;;1.40;0.80;;;23.80;99.90;;;;;;4949939;28;20031;-76
2023/07/28 10:51:53;;;;;;;0.85;0.60;;;23.80;99.90;;;;;;4947320;28;20039;-71
2023/07/28 10:54:20;;;;;;;1.70;0.50;;;23.80;99.90;;;;;;4950427;28;20031;-72
2023/07/28 10:56:48;;;;;;;0.85;0.60;;;23.80;99.90;;;;;;4950577;28;20031;-73
2023/07/28 10:59:15;;;;;;;0.93;0.70;;;24.00;99.90;;;;;;4947470;28;20494;-72
2023/07/28 11:01:42;;;;;;;0.95;0.60;;;24.00;99.90;;;;;;4948470;29;20037;-72
2023/07/28 11:04:10;;;;;;;1.23;0.70;;;23.90;99.90;;;;;;4942306;28;20126;-72
2023/07/28 11:06:37;;;;;;;0.55;0.50;;;24.00;99.90;;;;;;4953011;29;20504;-72
2023/07/28 11:09:06;;;;;;;1.45;0.60;;;24.30;99.90;;;;;;4952040;29;20058;-72
2023/07/28 11:11:31;;;;;;;0.40;0.40;;;24.50;99.90;;;;;;4952567;28;20034;-71
2023/07/28 11:13:58;;;;;;;1.33;0.73;;;24.70;99.90;;;;;;4953515;29;20035;-71
2023/07/28 11:16:23;;;;;;;1.92;0.50;;;24.80;99.90;;;;;;4953075;28;20023;-72
2023/07/28 11:18:49;;;;;;;1.02;0.70;;;25.00;99.90;;;;;;4955029;28;20365;-69
2023/07/28 11:21:17;;;;;;;5.05;0.60;;;25.00;99.90;;;;;;4955453;28;20098;-72
2023/07/28 11:23:46;;;;;;;2.80;0.75;;;25.00;99.90;;;;;;4955551;28;20396;-71
2023/07/28 11:26:11;;;;;;;1.02;0.90;;;25.10;99.90;;;;;;4953712;28;20437;-72
2023/07/28 11:28:39;;;;;;;1.58;0.70;;;25.10;99.90;;;;;;4953823;28;20133;-71
2023/07/28 11:31:04;;;;;;;1.55;0.70;;;24.90;99.90;;;;;;4955372;28;20026;-72
2023/07/28 11:33:31;;;;;;;3.67;0.85;;;24.70;99.90;;;;;;4955459;29;20524;-72
2023/07/28 11:35:57;;;;;;;1.02;0.70;;;24.50;99.90;;;;;;4955310;29;20102;-72
2023/07/28 11:38:23;;;;;;;0.70;0.40;;;24.40;99.90;;;;;;4954108;29;20106;-73
2023/07/28 11:40:50;;;;;;;0.60;0.60;;;24.30;99.90;;;;;;4954907;29;20516;-71
2023/07/28 11:43:17;;;;;;;1.75;0.50;;;24.10;99.90;;;;;;4955139;28;20031;-73
2023/07/28 11:45:43;;;;;;;3.40;0.75;;;24.10;99.90;;;;;;4955264;28;20492;-73
2023/07/28 11:48:08;;;;;;;0.68;0.60;;;24.10;99.90;;;;;;4955004;29;20026;-73
2023/07/28 11:50:41;;;;;;;0.95;0.80;;;24.10;99.90;;;;;;4955202;28;20477;-72
2023/07/28 11:53:09;;;;;;;0.65;0.60;;;24.00;99.90;;;;;;4954905;28;20023;-73
2023/07/28 11:55:37;;;;;;;1.38;0.80;;;24.10;99.90;;;;;;4948512;28;20031;-72
2023/07/28 11:58:05;;;;;;;0.77;0.60;;;24.00;99.90;;;;;;4928832;28;20027;-72
2023/07/28 12:00:35;;;;;;;4.68;1.00;;;23.90;99.90;;;;;;4946286;28;20366;-73
2023/07/28 12:03:12;;;;;;;1.27;0.77;;;24.00;99.90;;;;;;4948658;28;20035;-71
2023/07/28 12:05:58;;;;;;;2.05;0.80;;;24.00;99.90;;;;;;4948926;29;20027;-72
2023/07/28 12:08:38;;;;;;;1.10;1.00;;;23.90;99.90;;;;;;4949253;29;20066;-73
2023/07/28 12:11:04;;;;;;;1.10;0.98;;;24.00;99.90;;;;;;4948112;28;20027;-72
2023/07/28 12:13:30;;;;;;;1.38;0.80;;;24.20;99.90;;;;;;4948143;28;20027;-73
2023/07/28 12:15:56;;;;;;;1.67;0.88;;;24.20;99.90;;;;;;4948194;28;20062;-71
2023/07/28 12:18:23;;;;;;;0.85;0.80;;;24.20;99.90;;;;;;4947808;28;20031;-72
2023/07/28 12:20:52;;;;;;;0.60;0.60;;;24.30;99.90;;;;;;4948254;28;20039;-73
2023/07/28 12:23:20;;;;;;;1.85;0.88;;;24.30;99.90;;;;;;4948588;28;20075;-72
2023/07/28 12:25:55;;;;;;;0.70;0.70;;;24.60;99.90;;;;;;4946452;28;20471;-75
2023/07/28 12:28:21;;;;;;;0.50;0.50;;;24.70;99.90;;;;;;4944154;28;20146;-73
2023/07/28 12:30:49;;;;;;;1.35;0.47;;;24.80;99.90;;;;;;4947931;28;20098;-71
2023/07/28 12:33:14;;;;;;;0.77;0.63;;;24.80;99.90;;;;;;4939905;28;20078;-73
2023/07/28 12:35:40;;;;;;;1.27;0.60;;;24.80;99.90;;;;;;4947496;28;20027;-72
2023/07/28 12:38:06;;;;;;;1.05;0.50;;;24.70;99.90;;;;;;4948281;28;20031;-72
2023/07/28 12:40:33;;;;;;;0.80;0.70;;;24.70;99.90;;;;;;4948067;28;20097;-72